createdAt,value
2023-03-13T00:01:15.824Z,98.00
2023-03-13T00:03:44.934Z,97.81
2023-03-13T00:06:12.438Z,97.98
2023-03-13T00:08:40.286Z,97.59
2023-03-13T00:11:10.714Z,97.31
2023-03-13T00:13:38.784Z,97.74
2023-03-13T00:16:08.531Z,97.54
2023-03-13T00:18:36.150Z,97.22
2023-03-13T00:21:06.968Z,97.16
2023-03-13T00:23:36.608Z,97.46
2023-03-13T00:26:05.913Z,97.34
2023-03-13T00:28:34.819Z,96.91
2023-03-13T00:31:02.894Z,96.73
2023-03-13T00:33:30.481Z,96.93
2023-03-13T00:36:01.587Z,96.71
2023-03-13T00:38:31.076Z,96.80
2023-03-13T00:41:03.006Z,96.75
2023-03-13T00:43:30.690Z,97.06
2023-03-13T00:45:58.445Z,96.56
2023-03-13T00:48:26.278Z,96.78
2023-03-13T00:50:53.776Z,97.07
2023-03-13T00:53:21.276Z,96.37
2023-03-13T00:55:58.779Z,96.40
2023-03-13T00:58:27.893Z,96.24
2023-03-13T01:00:56.143Z,96.04
2023-03-13T01:03:26.657Z,96.07
2023-03-13T01:05:58.482Z,95.98
2023-03-13T01:08:26.739Z,96.00
2023-03-13T01:11:00.600Z,95.95
2023-03-13T01:13:28.894Z,95.81
2023-03-13T01:15:56.530Z,96.33
2023-03-13T01:18:24.556Z,95.96
2023-03-13T01:20:52.004Z,95.75
2023-03-13T01:23:19.599Z,95.63
2023-03-13T01:25:47.075Z,96.24
2023-03-13T01:28:15.940Z,95.93
2023-03-13T01:30:43.343Z,96.00
2023-03-13T01:33:10.890Z,95.78
2023-03-13T01:35:38.365Z,96.14
2023-03-13T01:38:06.045Z,95.83
2023-03-13T01:40:40.702Z,96.18
2023-03-13T01:43:27.946Z,96.21
2023-03-13T01:45:59.600Z,95.92
2023-03-13T01:48:33.375Z,95.69
2023-03-13T01:51:03.475Z,95.58
2023-03-13T01:53:34.245Z,95.93
2023-03-13T01:56:03.891Z,95.71
2023-03-13T01:58:33.067Z,95.67
2023-03-13T02:01:01.587Z,95.93
2023-03-13T02:03:29.772Z,95.63
2023-03-13T02:05:59.122Z,95.67
2023-03-13T02:08:33.176Z,95.59
2023-03-13T02:11:09.453Z,95.74
2023-03-13T02:13:38.267Z,95.66
2023-03-13T02:16:07.007Z,95.55
2023-03-13T02:18:35.019Z,95.70
2023-03-13T02:21:11.279Z,95.67
2023-03-13T02:23:45.868Z,95.54
2023-03-13T02:26:14.777Z,95.44
2023-03-13T02:28:42.439Z,95.27
2023-03-13T02:31:10.568Z,95.25
2023-03-13T02:33:41.102Z,95.17
2023-03-13T02:36:09.771Z,94.98
2023-03-13T02:38:42.259Z,95.25
2023-03-13T02:41:10.626Z,94.94
2023-03-13T02:43:39.683Z,94.75
2023-03-13T02:46:11.197Z,95.17
2023-03-13T02:48:40.438Z,95.26
2023-03-13T02:51:14.219Z,95.08
2023-03-13T02:53:43.058Z,95.04
2023-03-13T02:56:10.937Z,95.09
2023-03-13T02:58:49.796Z,95.37
2023-03-13T03:01:18.401Z,95.43
2023-03-13T03:03:46.015Z,95.25
2023-03-13T03:06:13.532Z,95.02
2023-03-13T03:08:43.707Z,95.44
2023-03-13T03:11:12.155Z,95.45
2023-03-13T03:13:39.855Z,95.32
2023-03-13T03:16:11.100Z,95.36
2023-03-13T03:18:39.426Z,95.13
2023-03-13T03:21:07.200Z,95.05
2023-03-13T03:23:34.945Z,94.86
2023-03-13T03:26:03.045Z,95.16
2023-03-13T03:28:30.674Z,95.10
2023-03-13T03:30:58.139Z,95.25
2023-03-13T03:33:26.908Z,94.90
2023-03-13T03:36:00.529Z,95.22
2023-03-13T03:38:28.010Z,95.13
2023-03-13T03:40:55.700Z,95.23
2023-03-13T03:43:24.856Z,95.25
2023-03-13T03:45:52.404Z,95.48
2023-03-13T03:48:19.877Z,95.32
2023-03-13T03:50:48.691Z,95.42
2023-03-13T03:53:16.032Z,95.38
2023-03-13T03:55:43.338Z,95.41
2023-03-13T03:58:10.856Z,95.61
2023-03-13T04:00:38.318Z,95.77
2023-03-13T04:03:05.796Z,95.13
2023-03-13T04:05:33.285Z,95.69
2023-03-13T04:08:02.133Z,95.90
2023-03-13T04:10:29.446Z,95.64
2023-03-13T04:12:56.767Z,95.37
2023-03-13T04:15:24.117Z,95.56
2023-03-13T04:17:51.408Z,95.67
2023-03-13T04:20:18.978Z,95.20
2023-03-13T04:22:46.445Z,95.06
2023-03-13T04:25:15.315Z,94.46
2023-03-13T04:27:42.633Z,94.99
2023-03-13T04:30:10.606Z,94.59
2023-03-13T04:32:38.165Z,94.70
2023-03-13T04:35:06.355Z,95.16
2023-03-13T04:37:33.858Z,95.85
2023-03-13T04:40:01.398Z,96.38
2023-03-13T04:42:30.247Z,96.90
2023-03-13T04:44:57.597Z,96.71
2023-03-13T04:47:25.066Z,96.43
2023-03-13T04:49:52.524Z,96.97
2023-03-13T04:52:20.059Z,97.20
2023-03-13T04:54:47.518Z,97.48
2023-03-13T04:57:14.934Z,98.76
2023-03-13T04:59:43.738Z,98.64
2023-03-13T05:02:11.428Z,98.46
2023-03-13T05:04:39.070Z,99.10
2023-03-13T05:07:06.569Z,99.65
2023-03-13T05:09:34.026Z,99.98
2023-03-13T05:12:01.496Z,100.00
2023-03-13T05:14:28.987Z,100.00
2023-03-13T05:16:57.771Z,100.00
2023-03-13T05:19:25.097Z,100.00
2023-03-13T05:21:52.421Z,100.00
2023-03-13T05:24:19.767Z,100.00
2023-03-13T05:26:47.047Z,100.00
2023-03-13T05:29:14.351Z,100.00
2023-03-13T05:31:41.819Z,100.00
2023-03-13T05:34:10.759Z,100.00
2023-03-13T05:36:38.100Z,100.00
2023-03-13T05:39:05.395Z,100.00
2023-03-13T05:41:32.718Z,100.00
2023-03-13T05:44:00.066Z,100.00
2023-03-13T05:46:27.474Z,100.00
2023-03-13T05:48:54.936Z,100.00
2023-03-13T05:51:23.760Z,100.00
2023-03-13T05:53:51.074Z,100.00
2023-03-13T05:56:18.426Z,100.00
2023-03-13T05:58:45.780Z,100.00
2023-03-13T06:01:13.867Z,100.00
2023-03-13T06:03:41.886Z,100.00
2023-03-13T06:06:09.521Z,100.00
2023-03-13T06:08:38.331Z,100.00
2023-03-13T06:11:05.871Z,100.00
2023-03-13T06:13:33.309Z,100.00
2023-03-13T06:16:00.995Z,100.00
2023-03-13T06:18:28.606Z,100.00
2023-03-13T06:21:01.636Z,100.00
2023-03-13T06:23:29.855Z,100.00
2023-03-13T06:25:58.684Z,100.00
2023-03-13T06:28:25.977Z,100.00
2023-03-13T06:30:53.327Z,100.00
2023-03-13T06:33:20.684Z,100.00
2023-03-13T06:35:56.270Z,100.00
2023-03-13T06:38:24.032Z,100.00
2023-03-13T06:40:51.560Z,100.00
2023-03-13T06:43:20.654Z,100.00
2023-03-13T06:45:48.572Z,100.00
2023-03-13T06:48:16.057Z,100.00
2023-03-13T06:50:43.871Z,100.00
2023-03-13T06:53:16.574Z,100.00
2023-03-13T06:55:44.462Z,100.00
2023-03-13T06:58:25.014Z,100.00
2023-03-13T07:00:59.956Z,100.00
2023-03-13T07:03:27.514Z,100.00
2023-03-13T07:05:57.323Z,100.00
2023-03-13T07:08:25.512Z,100.00
2023-03-13T07:10:53.517Z,100.00
2023-03-13T07:13:22.526Z,100.00
2023-03-13T07:15:50.111Z,100.00
2023-03-13T07:18:19.140Z,100.00
2023-03-13T07:20:46.339Z,100.00
2023-03-13T07:23:13.876Z,100.00
2023-03-13T07:25:41.323Z,100.00
2023-03-13T07:28:08.761Z,100.00
2023-03-13T07:30:36.218Z,100.00
2023-03-13T07:33:03.710Z,100.00
2023-03-13T07:35:32.588Z,100.00
2023-03-13T07:37:59.914Z,100.00
2023-03-13T07:40:27.404Z,100.00
2023-03-13T07:42:54.876Z,100.00
2023-03-13T07:45:22.405Z,100.00
2023-03-13T07:47:49.860Z,100.00
2023-03-13T07:50:17.775Z,100.00
2023-03-13T07:52:46.615Z,100.00
2023-03-13T07:55:14.078Z,100.00
2023-03-13T07:57:41.538Z,100.00
2023-03-13T08:00:16.351Z,100.00
2023-03-13T08:02:43.757Z,100.00
2023-03-13T08:05:11.293Z,100.00
2023-03-13T08:07:38.738Z,100.00
2023-03-13T08:10:08.509Z,100.00
2023-03-13T08:12:36.064Z,100.00
2023-03-13T08:15:03.567Z,100.00
2023-03-13T08:17:31.298Z,100.00
2023-03-13T08:19:58.765Z,100.00
2023-03-13T08:22:26.244Z,100.00
2023-03-13T08:24:53.722Z,100.00
2023-03-13T08:27:22.510Z,100.00
2023-03-13T08:29:50.219Z,100.00
2023-03-13T08:32:18.215Z,100.00
2023-03-13T08:34:45.838Z,100.00
2023-03-13T08:37:16.340Z,100.00
2023-03-13T08:39:45.403Z,100.00
2023-03-13T08:42:14.186Z,100.00
2023-03-13T08:44:42.977Z,100.00
2023-03-13T08:47:10.475Z,100.00
2023-03-13T08:49:37.941Z,100.00
2023-03-13T08:52:05.917Z,100.00
2023-03-13T08:54:33.773Z,100.00
2023-03-13T08:57:01.268Z,100.00
2023-03-13T08:59:28.914Z,100.00
2023-03-13T09:01:57.741Z,100.00
2023-03-13T09:04:25.186Z,100.00
2023-03-13T09:06:53.036Z,100.00
2023-03-13T09:09:20.496Z,100.00
2023-03-13T09:11:48.073Z,100.00
2023-03-13T09:14:15.570Z,100.00
2023-03-13T09:16:43.031Z,100.00
2023-03-13T09:19:11.896Z,100.00
2023-03-13T09:21:39.425Z,100.00
2023-03-13T09:24:07.595Z,100.00
2023-03-13T09:26:35.097Z,100.00
2023-03-13T09:29:03.101Z,100.00
2023-03-13T09:31:32.340Z,100.00
2023-03-13T09:34:00.722Z,100.00
2023-03-13T09:36:29.766Z,100.00
2023-03-13T09:38:59.523Z,100.00
2023-03-13T09:41:34.875Z,98.91
2023-03-13T09:44:07.945Z,100.00
2023-03-13T09:46:41.863Z,95.90
2023-03-13T09:49:17.244Z,95.81
2023-03-13T09:51:54.270Z,97.30
2023-03-13T09:54:26.022Z,96.15
2023-03-13T09:56:57.345Z,96.51
2023-03-13T09:59:31.272Z,98.26
2023-03-13T10:02:01.650Z,97.46
2023-03-13T10:04:34.220Z,97.32
2023-03-13T10:07:03.601Z,95.04
2023-03-13T10:09:33.047Z,97.10
2023-03-13T10:12:12.907Z,94.32
2023-03-13T10:14:46.330Z,94.05
2023-03-13T10:17:29.459Z,91.72
2023-03-13T10:20:01.510Z,94.00
2023-03-13T10:22:33.077Z,94.49
2023-03-13T10:25:04.271Z,94.80
2023-03-13T10:27:31.737Z,95.28
2023-03-13T10:29:59.183Z,93.57
2023-03-13T10:32:28.355Z,94.73
2023-03-13T10:34:58.364Z,94.14
2023-03-13T10:37:27.875Z,93.20
2023-03-13T10:40:13.590Z,93.41
2023-03-13T10:42:45.594Z,94.21
2023-03-13T10:45:17.217Z,95.46
2023-03-13T10:47:44.679Z,91.81
2023-03-13T10:50:19.859Z,92.56
2023-03-13T10:52:49.398Z,91.79
2023-03-13T10:55:21.204Z,92.31
2023-03-13T10:57:58.004Z,93.53
2023-03-13T11:00:36.070Z,93.40
2023-03-13T11:03:07.898Z,93.29
2023-03-13T11:05:42.472Z,93.05
2023-03-13T11:08:21.844Z,91.40
2023-03-13T11:11:02.052Z,90.34
2023-03-13T11:13:47.439Z,90.79
2023-03-13T11:16:21.949Z,89.08
2023-03-13T11:19:15.888Z,91.35
2023-03-13T11:21:55.069Z,92.93
2023-03-13T11:24:31.802Z,93.60
2023-03-13T11:27:10.989Z,92.10
2023-03-13T11:29:47.864Z,89.61
2023-03-13T11:32:23.989Z,90.27
2023-03-13T11:34:55.864Z,90.85
2023-03-13T11:37:29.467Z,91.21
2023-03-13T11:40:05.508Z,91.25
2023-03-13T11:42:47.990Z,90.75
2023-03-13T11:45:30.687Z,90.94
2023-03-13T11:48:05.534Z,89.81
2023-03-13T11:50:47.250Z,88.44
2023-03-13T11:53:27.903Z,88.28
2023-03-13T11:56:04.143Z,87.47
2023-03-13T11:58:43.620Z,87.63
2023-03-13T12:01:15.673Z,88.42
2023-03-13T12:03:56.727Z,86.33
2023-03-13T12:06:31.580Z,87.23
2023-03-13T12:09:06.180Z,86.38
2023-03-13T12:11:38.081Z,84.58
2023-03-13T12:14:12.708Z,85.44
2023-03-13T12:16:42.483Z,85.28
2023-03-13T12:19:13.653Z,88.02
2023-03-13T12:21:48.258Z,86.60
2023-03-13T12:24:19.893Z,83.13
2023-03-13T12:26:52.759Z,85.52
2023-03-13T12:29:31.336Z,87.60
2023-03-13T12:32:03.837Z,84.29
2023-03-13T12:34:37.058Z,85.39
2023-03-13T12:37:10.618Z,84.07
2023-03-13T12:39:43.974Z,82.56
2023-03-13T12:42:22.194Z,83.26
2023-03-13T12:44:51.837Z,82.55
2023-03-13T12:47:28.133Z,83.62
2023-03-13T12:50:17.418Z,82.19
2023-03-13T12:53:06.222Z,78.57
2023-03-13T12:56:13.200Z,80.02
2023-03-13T12:58:49.337Z,82.05
2023-03-13T13:01:28.656Z,81.98
2023-03-13T13:03:58.801Z,82.21
2023-03-13T13:06:28.068Z,82.41
2023-03-13T13:09:15.314Z,80.86
2023-03-13T13:11:49.177Z,79.78
2023-03-13T13:14:57.483Z,81.05
2023-03-13T13:17:34.653Z,80.70
2023-03-13T13:20:30.673Z,81.01
2023-03-13T13:23:16.972Z,79.43
2023-03-13T13:25:44.518Z,81.66
2023-03-13T13:28:26.876Z,81.05
2023-03-13T13:30:56.593Z,76.97
2023-03-13T13:33:41.002Z,78.25
2023-03-13T13:36:32.452Z,77.37
2023-03-13T13:39:00.373Z,76.49
2023-03-13T13:41:38.552Z,78.51
2023-03-13T13:44:26.722Z,76.55
2023-03-13T13:46:56.679Z,76.16
2023-03-13T13:49:31.553Z,74.62
2023-03-13T13:52:19.663Z,76.88
2023-03-13T13:54:56.329Z,76.77
2023-03-13T13:57:26.230Z,76.12
2023-03-13T13:59:57.311Z,75.84
2023-03-13T14:02:26.401Z,76.99
2023-03-13T14:05:02.775Z,77.88
2023-03-13T14:07:38.270Z,76.02
2023-03-13T14:10:17.784Z,76.43
2023-03-13T14:12:47.541Z,78.04
2023-03-13T14:15:19.147Z,77.24
2023-03-13T14:17:49.538Z,79.25
2023-03-13T14:20:33.340Z,77.41
2023-03-13T14:23:03.523Z,77.73
2023-03-13T14:25:44.052Z,78.09
2023-03-13T14:28:20.675Z,79.28
2023-03-13T14:30:50.836Z,79.30
2023-03-13T14:33:19.013Z,78.55
2023-03-13T14:35:48.762Z,80.00
2023-03-13T14:38:19.060Z,78.90
2023-03-13T14:40:46.677Z,78.72
2023-03-13T14:43:34.407Z,79.27
2023-03-13T14:46:13.732Z,78.24
2023-03-13T14:48:41.650Z,75.50
2023-03-13T14:51:19.008Z,76.63
2023-03-13T14:53:57.780Z,77.73
2023-03-13T14:56:34.600Z,77.65
2023-03-13T14:59:17.277Z,76.82
2023-03-13T15:01:45.386Z,77.84
2023-03-13T15:04:13.254Z,77.94
2023-03-13T15:06:42.209Z,76.20
2023-03-13T15:09:17.853Z,77.86
2023-03-13T15:11:55.398Z,76.24
2023-03-13T15:14:40.589Z,77.88
2023-03-13T15:17:17.236Z,74.46
2023-03-13T15:19:49.396Z,77.68
2023-03-13T15:22:19.486Z,76.71
2023-03-13T15:25:03.312Z,77.34
2023-03-13T15:27:33.050Z,75.90
2023-03-13T15:30:00.503Z,77.39
2023-03-13T15:32:29.958Z,76.58
2023-03-13T15:34:58.753Z,74.55
2023-03-13T15:37:28.022Z,75.86
2023-03-13T15:39:56.746Z,76.16
2023-03-13T15:42:25.437Z,76.92
2023-03-13T15:44:53.148Z,74.69
2023-03-13T15:47:22.311Z,76.15
2023-03-13T15:49:49.920Z,74.13
2023-03-13T15:52:20.247Z,74.33
2023-03-13T15:54:49.934Z,75.14
2023-03-13T15:57:19.214Z,74.94
2023-03-13T15:59:46.676Z,73.98
2023-03-13T16:02:15.949Z,75.99
2023-03-13T16:04:43.637Z,76.86
2023-03-13T16:07:12.350Z,75.23
2023-03-13T16:09:40.211Z,75.59
2023-03-13T16:12:09.627Z,76.17
2023-03-13T16:14:37.807Z,75.20
2023-03-13T16:17:14.196Z,75.38
2023-03-13T16:19:41.643Z,74.73
2023-03-13T16:22:09.067Z,75.39
2023-03-13T16:24:36.524Z,76.53
2023-03-13T16:27:06.428Z,76.27
2023-03-13T16:29:35.248Z,76.98
2023-03-13T16:32:02.902Z,76.34
2023-03-13T16:34:30.340Z,77.03
2023-03-13T16:36:57.807Z,77.65
2023-03-13T16:39:25.257Z,77.22
2023-03-13T16:41:52.708Z,76.10
2023-03-13T16:44:20.261Z,76.97
2023-03-13T16:47:04.447Z,76.98
2023-03-13T16:49:32.496Z,77.05
2023-03-13T16:51:59.942Z,76.26
2023-03-13T16:54:27.415Z,77.92
2023-03-13T16:56:54.958Z,77.85
2023-03-13T16:59:23.165Z,77.96
2023-03-13T17:01:52.268Z,77.74
2023-03-13T17:04:19.985Z,77.68
2023-03-13T17:06:47.754Z,76.54
2023-03-13T17:09:17.777Z,77.35
2023-03-13T17:11:45.889Z,77.84
2023-03-13T17:14:13.834Z,79.12
2023-03-13T17:16:44.523Z,79.15
2023-03-13T17:19:15.077Z,79.32
2023-03-13T17:21:42.523Z,80.23
2023-03-13T17:24:10.227Z,80.60
2023-03-13T17:26:39.349Z,80.34
2023-03-13T17:29:08.262Z,80.71
2023-03-13T17:31:38.403Z,80.97
2023-03-13T17:34:06.265Z,80.46
2023-03-13T17:36:35.758Z,81.82
2023-03-13T17:39:06.137Z,82.54
2023-03-13T17:41:35.199Z,83.26
2023-03-13T17:44:03.528Z,83.60
2023-03-13T17:46:35.520Z,84.71
2023-03-13T17:49:03.361Z,85.34
2023-03-13T17:51:32.729Z,85.47
2023-03-13T17:54:02.115Z,85.38
2023-03-13T17:56:31.497Z,85.42
2023-03-13T17:59:00.410Z,85.51
2023-03-13T18:01:30.103Z,85.92
2023-03-13T18:03:58.067Z,86.02
2023-03-13T18:06:27.694Z,86.43
2023-03-13T18:08:57.385Z,85.90
2023-03-13T18:11:27.528Z,86.09
2023-03-13T18:13:55.067Z,85.76
2023-03-13T18:16:26.919Z,86.43
2023-03-13T18:18:55.541Z,86.84
2023-03-13T18:21:24.147Z,86.39
2023-03-13T18:23:52.901Z,86.14
2023-03-13T18:26:23.743Z,86.13
2023-03-13T18:28:55.466Z,86.16
2023-03-13T18:31:22.987Z,85.67
2023-03-13T18:33:50.539Z,86.23
2023-03-13T18:36:20.166Z,86.21
2023-03-13T18:38:48.881Z,85.48
2023-03-13T18:41:17.333Z,84.16
2023-03-13T18:43:44.725Z,84.80
2023-03-13T18:46:21.351Z,85.06
2023-03-13T18:48:49.266Z,85.32
2023-03-13T18:51:17.861Z,85.12
2023-03-13T18:53:46.657Z,85.44
2023-03-13T18:56:20.003Z,85.16
2023-03-13T18:58:50.331Z,85.40
2023-03-13T19:01:21.138Z,85.54
2023-03-13T19:03:49.068Z,85.59
2023-03-13T19:06:20.636Z,85.72
2023-03-13T19:08:50.439Z,85.47
2023-03-13T19:11:19.651Z,82.97
2023-03-13T19:13:47.136Z,79.24
2023-03-13T19:16:17.576Z,81.88
2023-03-13T19:18:47.295Z,86.28
2023-03-13T19:21:20.026Z,87.62
2023-03-13T19:23:47.666Z,88.95
2023-03-13T19:26:18.011Z,91.35
2023-03-13T19:28:45.926Z,92.73
2023-03-13T19:31:13.711Z,93.89
2023-03-13T19:33:41.255Z,94.61
2023-03-13T19:36:14.227Z,95.28
2023-03-13T19:38:42.248Z,97.20
2023-03-13T19:41:10.914Z,99.98
2023-03-13T19:43:39.027Z,100.00
2023-03-13T19:46:20.505Z,100.00
2023-03-13T19:48:48.472Z,100.00
2023-03-13T19:51:17.275Z,100.00
2023-03-13T19:53:44.883Z,100.00
2023-03-13T19:56:20.830Z,100.00
2023-03-13T19:58:49.143Z,100.00
2023-03-13T20:01:17.994Z,100.00
2023-03-13T20:03:46.205Z,100.00
2023-03-13T20:06:19.951Z,100.00
2023-03-13T20:08:48.479Z,100.00
2023-03-13T20:11:16.787Z,100.00
2023-03-13T20:13:44.288Z,100.00
2023-03-13T20:16:12.276Z,100.00
2023-03-13T20:18:40.182Z,100.00
2023-03-13T20:21:08.027Z,100.00
2023-03-13T20:23:36.841Z,100.00
2023-03-13T20:26:08.276Z,100.00
2023-03-13T20:28:36.024Z,100.00
2023-03-13T20:31:03.553Z,100.00
2023-03-13T20:33:31.535Z,100.00
2023-03-13T20:36:00.610Z,100.00
2023-03-13T20:38:28.809Z,100.00
2023-03-13T20:40:57.906Z,100.00
2023-03-13T20:43:25.921Z,100.00
2023-03-13T20:45:53.748Z,100.00
2023-03-13T20:48:21.629Z,100.00
2023-03-13T20:50:51.504Z,100.00
2023-03-13T20:53:19.098Z,100.00
2023-03-13T20:55:46.842Z,100.00
2023-03-13T20:58:15.854Z,100.00
2023-03-13T21:00:44.119Z,100.00
2023-03-13T21:03:13.977Z,100.00
2023-03-13T21:05:42.309Z,100.00
2023-03-13T21:08:10.699Z,100.00
2023-03-13T21:10:38.485Z,100.00
2023-03-13T21:13:06.879Z,100.00
2023-03-13T21:15:36.050Z,100.00
2023-03-13T21:18:03.883Z,100.00
2023-03-13T21:20:32.088Z,100.00
2023-03-13T21:22:59.527Z,100.00
2023-03-13T21:25:27.012Z,100.00
2023-03-13T21:27:54.472Z,100.00
2023-03-13T21:30:22.727Z,100.00
2023-03-13T21:32:51.575Z,100.00
2023-03-13T21:35:19.194Z,100.00
2023-03-13T21:37:47.009Z,100.00
2023-03-13T21:40:14.612Z,100.00
2023-03-13T21:42:42.073Z,100.00
2023-03-13T21:45:11.456Z,100.00
2023-03-13T21:47:38.941Z,100.00
2023-03-13T21:50:10.805Z,100.00
2023-03-13T21:52:41.193Z,100.00
2023-03-13T21:55:11.585Z,100.00
2023-03-13T21:57:39.074Z,100.00
2023-03-13T22:00:09.702Z,100.00
2023-03-13T22:02:37.735Z,100.00
2023-03-13T22:05:06.064Z,100.00
2023-03-13T22:07:34.888Z,100.00
2023-03-13T22:10:02.465Z,100.00
2023-03-13T22:12:29.937Z,100.00
2023-03-13T22:14:57.882Z,100.00
2023-03-13T22:17:25.465Z,100.00
2023-03-13T22:19:52.919Z,100.00
2023-03-13T22:22:21.859Z,100.00
2023-03-13T22:24:50.648Z,100.00
2023-03-13T22:27:19.339Z,100.00
2023-03-13T22:29:47.530Z,100.00
2023-03-13T22:32:16.205Z,100.00
2023-03-13T22:34:46.077Z,100.00
2023-03-13T22:37:13.723Z,100.00
2023-03-13T22:39:41.146Z,100.00
2023-03-13T22:42:09.918Z,100.00
2023-03-13T22:44:37.333Z,100.00
2023-03-13T22:47:04.823Z,100.00
2023-03-13T22:49:32.236Z,100.00
2023-03-13T22:51:59.713Z,100.00
2023-03-13T22:54:27.159Z,100.00
2023-03-13T22:56:54.701Z,100.00
2023-03-13T22:59:23.636Z,100.00
2023-03-13T23:01:51.141Z,100.00
2023-03-13T23:04:18.648Z,100.00
2023-03-13T23:06:46.110Z,100.00
2023-03-13T23:09:13.668Z,100.00
2023-03-13T23:11:41.083Z,100.00
2023-03-13T23:14:08.531Z,100.00
2023-03-13T23:16:37.902Z,100.00
2023-03-13T23:19:05.324Z,100.00
2023-03-13T23:21:32.759Z,100.00
2023-03-13T23:24:00.554Z,100.00
2023-03-13T23:26:28.040Z,100.00
2023-03-13T23:28:55.550Z,100.00
2023-03-13T23:31:23.383Z,100.00
2023-03-13T23:33:52.208Z,100.00
2023-03-13T23:36:20.475Z,100.00
2023-03-13T23:38:50.668Z,100.00
2023-03-13T23:41:18.493Z,100.00
2023-03-13T23:43:46.036Z,100.00
2023-03-13T23:46:18.398Z,100.00
2023-03-13T23:48:46.020Z,100.00
2023-03-13T23:51:14.942Z,100.00
2023-03-13T23:53:43.904Z,100.00
2023-03-13T23:56:12.280Z,100.00
2023-03-13T23:58:40.181Z,100.00
